createdAt,value
2023-04-23T00:00:16.258Z,27.40
2023-04-23T00:02:49.253Z,29.63
2023-04-23T00:05:17.613Z,29.27
2023-04-23T00:07:46.400Z,29.43
2023-04-23T00:10:14.980Z,28.60
2023-04-23T00:12:44.048Z,29.37
2023-04-23T00:15:14.236Z,31.67
2023-04-23T00:17:42.973Z,26.97
2023-04-23T00:20:11.343Z,28.17
2023-04-23T00:22:39.665Z,30.40
2023-04-23T00:25:09.090Z,31.90
2023-04-23T00:27:38.259Z,26.47
2023-04-23T00:30:07.503Z,30.77
2023-04-23T00:32:42.729Z,30.37
2023-04-23T00:35:10.997Z,35.53
2023-04-23T00:37:39.468Z,33.80
2023-04-23T00:40:08.529Z,38.07
2023-04-23T00:42:38.986Z,40.57
2023-04-23T00:45:10.608Z,40.10
2023-04-23T00:47:44.251Z,33.87
2023-04-23T00:50:13.506Z,37.60
2023-04-23T00:52:44.483Z,55.73
2023-04-23T00:55:12.745Z,39.00
2023-04-23T00:57:41.241Z,41.50
2023-04-23T01:00:15.188Z,45.63
2023-04-23T01:02:44.783Z,48.80
2023-04-23T01:05:14.082Z,72.03
2023-04-23T01:07:45.177Z,47.43
2023-04-23T01:10:13.704Z,47.20
2023-04-23T01:12:42.597Z,46.77
2023-04-23T01:15:11.185Z,51.23
2023-04-23T01:17:39.861Z,56.03
2023-04-23T01:20:08.911Z,55.23
2023-04-23T01:22:38.068Z,47.10
2023-04-23T01:25:08.368Z,52.63
2023-04-23T01:27:36.652Z,49.67
2023-04-23T01:30:06.261Z,57.30
2023-04-23T01:32:35.915Z,61.53
2023-04-23T01:35:05.034Z,68.17
2023-04-23T01:37:34.738Z,59.40
2023-04-23T01:40:03.068Z,61.17
2023-04-23T01:42:32.042Z,49.97
2023-04-23T01:45:00.203Z,54.07
2023-04-23T01:47:28.621Z,56.77
2023-04-23T01:49:56.779Z,59.60
2023-04-23T01:52:24.897Z,50.23
2023-04-23T01:54:53.306Z,61.70
2023-04-23T01:57:24.714Z,52.90
2023-04-23T02:00:08.940Z,52.43
2023-04-23T02:02:41.571Z,54.63
2023-04-23T02:05:12.929Z,54.43
2023-04-23T02:07:41.652Z,60.63
2023-04-23T02:10:10.347Z,52.43
2023-04-23T02:12:39.690Z,55.37
2023-04-23T02:15:08.899Z,53.87
2023-04-23T02:17:37.398Z,57.43
2023-04-23T02:20:06.903Z,44.03
2023-04-23T02:22:34.994Z,54.90
2023-04-23T02:25:03.210Z,69.57
2023-04-23T02:27:32.661Z,66.17
2023-04-23T02:30:01.062Z,53.27
2023-04-23T02:32:29.089Z,54.60
2023-04-23T02:34:59.994Z,53.53
2023-04-23T02:37:32.393Z,52.10
2023-04-23T02:40:00.600Z,56.00
2023-04-23T02:42:28.880Z,52.37
2023-04-23T02:44:56.825Z,50.40
2023-04-23T02:47:25.269Z,56.43
2023-04-23T02:49:53.849Z,45.20
2023-04-23T02:52:22.169Z,44.37
2023-04-23T02:54:50.288Z,40.87
2023-04-23T02:57:18.281Z,40.93
2023-04-23T02:59:46.705Z,57.60
2023-04-23T03:02:14.857Z,45.43
2023-04-23T03:04:44.392Z,37.17
2023-04-23T03:07:13.733Z,37.30
2023-04-23T03:09:43.209Z,36.63
2023-04-23T03:12:11.089Z,34.30
2023-04-23T03:14:40.971Z,36.73
2023-04-23T03:17:11.492Z,34.10
2023-04-23T03:19:41.704Z,30.10
2023-04-23T03:22:09.834Z,23.10
2023-04-23T03:24:38.004Z,24.90
2023-04-23T03:27:09.737Z,23.13
2023-04-23T03:29:40.457Z,22.47
2023-04-23T03:32:08.430Z,22.47
2023-04-23T03:34:36.643Z,31.67
2023-04-23T03:37:04.712Z,33.30
2023-04-23T03:39:33.984Z,32.60
2023-04-23T03:42:02.355Z,40.27
2023-04-23T03:44:30.527Z,42.10
2023-04-23T03:46:58.790Z,38.73
2023-04-23T03:49:27.851Z,42.67
2023-04-23T03:51:55.920Z,37.22
2023-04-23T03:54:26.080Z,31.73
2023-04-23T03:56:55.033Z,30.27
2023-04-23T03:59:23.188Z,29.70
2023-04-23T04:01:51.299Z,29.13
2023-04-23T04:04:19.919Z,24.25
2023-04-23T04:06:48.427Z,26.05
2023-04-23T04:09:18.394Z,24.73
2023-04-23T04:11:46.443Z,25.02
2023-04-23T04:14:14.943Z,28.63
2023-04-23T04:16:43.312Z,27.42
2023-04-23T04:19:11.472Z,26.42
2023-04-23T04:21:41.615Z,25.77
2023-04-23T04:24:11.738Z,23.77
2023-04-23T04:26:40.683Z,24.25
2023-04-23T04:29:11.186Z,26.88
2023-04-23T04:31:39.654Z,27.33
2023-04-23T04:34:09.361Z,29.90
2023-04-23T04:36:37.479Z,25.77
2023-04-23T04:39:05.711Z,29.83
2023-04-23T04:41:34.065Z,27.50
2023-04-23T04:44:02.332Z,28.83
2023-04-23T04:46:32.544Z,30.17
2023-04-23T04:49:01.198Z,29.15
2023-04-23T04:51:54.617Z,29.08
2023-04-23T04:54:22.477Z,25.63
2023-04-23T04:56:50.716Z,29.48
2023-04-23T04:59:20.265Z,27.48
2023-04-23T05:01:48.986Z,28.40
2023-04-23T05:04:17.271Z,26.77
2023-04-23T05:06:45.900Z,26.33
2023-04-23T05:09:14.157Z,23.70
2023-04-23T05:11:42.182Z,23.60
2023-04-23T05:14:10.545Z,21.90
2023-04-23T05:16:38.651Z,20.42
2023-04-23T05:19:06.761Z,22.00
2023-04-23T05:21:34.905Z,18.42
2023-04-23T05:24:03.542Z,21.55
2023-04-23T05:26:32.325Z,20.20
2023-04-23T05:29:00.630Z,16.63
2023-04-23T05:31:29.438Z,18.90
2023-04-23T05:33:57.837Z,17.10
2023-04-23T05:36:26.339Z,20.83
2023-04-23T05:38:54.406Z,20.23
2023-04-23T05:41:22.507Z,19.13
2023-04-23T05:43:50.745Z,18.00
2023-04-23T05:46:19.671Z,19.58
2023-04-23T05:48:48.114Z,19.13
2023-04-23T05:51:17.553Z,20.75
2023-04-23T05:53:46.033Z,19.48
2023-04-23T05:56:14.119Z,20.20
2023-04-23T05:58:42.112Z,11.93
2023-04-23T06:01:10.474Z,16.10
2023-04-23T06:03:38.890Z,14.50
2023-04-23T06:06:07.458Z,17.30
2023-04-23T06:08:39.120Z,15.88
2023-04-23T06:11:08.030Z,16.80
2023-04-23T06:13:43.646Z,19.45
2023-04-23T06:16:14.982Z,16.40
2023-04-23T06:18:46.246Z,18.33
2023-04-23T06:21:14.681Z,15.50
2023-04-23T06:23:42.822Z,17.45
2023-04-23T06:26:11.046Z,16.55
2023-04-23T06:28:42.691Z,20.27
2023-04-23T06:31:11.456Z,13.88
2023-04-23T06:33:40.229Z,14.57
2023-04-23T06:36:11.606Z,15.95
2023-04-23T06:38:40.203Z,15.75
2023-04-23T06:41:08.508Z,14.55
2023-04-23T06:43:36.676Z,14.75
2023-04-23T06:46:04.809Z,15.02
2023-04-23T06:48:33.176Z,14.98
2023-04-23T06:51:01.647Z,15.95
2023-04-23T06:53:32.351Z,12.55
2023-04-23T06:56:00.584Z,14.65
2023-04-23T06:58:32.466Z,16.13
2023-04-23T07:01:00.951Z,16.40
2023-04-23T07:03:29.713Z,13.90
2023-04-23T07:05:58.111Z,14.95
2023-04-23T07:08:26.344Z,15.27
2023-04-23T07:10:55.136Z,14.20
2023-04-23T07:13:24.633Z,22.52
2023-04-23T07:15:52.794Z,13.95
2023-04-23T07:18:20.880Z,16.08
2023-04-23T07:20:48.924Z,13.02
2023-04-23T07:23:18.906Z,15.45
2023-04-23T07:25:51.599Z,14.07
2023-04-23T07:28:22.549Z,14.25
2023-04-23T07:30:51.152Z,14.98
2023-04-23T07:33:20.171Z,15.70
2023-04-23T07:35:48.867Z,13.52
2023-04-23T07:38:16.780Z,10.63
2023-04-23T07:40:45.083Z,13.80
2023-04-23T07:43:14.318Z,12.95
2023-04-23T07:45:42.540Z,15.15
2023-04-23T07:48:11.557Z,9.23
2023-04-23T07:50:39.821Z,10.25
2023-04-23T07:53:08.026Z,7.03
2023-04-23T07:55:37.089Z,11.93
2023-04-23T07:58:05.132Z,9.52
2023-04-23T08:00:33.885Z,6.20
2023-04-23T08:03:01.993Z,9.23
2023-04-23T08:05:30.307Z,10.27
2023-04-23T08:08:00.226Z,8.32
2023-04-23T08:10:28.091Z,12.15
2023-04-23T08:12:56.239Z,10.20
2023-04-23T08:15:24.713Z,10.45
2023-04-23T08:17:52.783Z,6.45
2023-04-23T08:20:21.016Z,15.75
2023-04-23T08:22:53.530Z,37.60
2023-04-23T08:25:21.765Z,22.23
2023-04-23T08:27:50.601Z,28.48
2023-04-23T08:30:18.838Z,16.23
2023-04-23T08:32:50.195Z,32.28
2023-04-23T08:35:18.683Z,21.00
2023-04-23T08:37:47.439Z,29.15
2023-04-23T08:40:15.888Z,31.90
2023-04-23T08:42:59.149Z,27.50
2023-04-23T08:45:27.375Z,25.65
2023-04-23T08:48:02.368Z,20.98
2023-04-23T08:50:31.907Z,16.92
2023-04-23T08:53:00.555Z,16.10
2023-04-23T08:55:28.642Z,18.40
2023-04-23T08:57:59.615Z,14.45
2023-04-23T09:00:30.392Z,17.42
2023-04-23T09:02:59.519Z,17.75
2023-04-23T09:05:29.713Z,10.57
2023-04-23T09:07:59.945Z,22.00
2023-04-23T09:10:28.074Z,28.40
2023-04-23T09:12:56.239Z,34.47
2023-04-23T09:15:27.901Z,46.55
2023-04-23T09:17:57.313Z,33.42
2023-04-23T09:20:26.246Z,43.67
2023-04-23T09:22:56.523Z,40.80
2023-04-23T09:25:24.991Z,28.70
2023-04-23T09:27:53.958Z,18.93
2023-04-23T09:30:26.989Z,27.73
2023-04-23T09:32:55.557Z,27.03
2023-04-23T09:35:23.745Z,28.00
2023-04-23T09:37:53.722Z,23.27
2023-04-23T09:40:24.347Z,14.60
2023-04-23T09:42:55.014Z,9.97
2023-04-23T09:45:26.016Z,7.07
2023-04-23T09:47:56.000Z,11.50
2023-04-23T09:50:40.083Z,12.33
2023-04-23T09:53:10.101Z,9.57
2023-04-23T09:55:40.223Z,11.50
2023-04-23T09:58:12.959Z,6.80
2023-04-23T10:00:41.960Z,6.80
2023-04-23T10:03:11.363Z,5.00
2023-04-23T10:08:14.332Z,6.00
2023-04-23T10:10:59.490Z,8.00
2023-04-23T10:13:31.657Z,9.37
2023-04-23T10:16:10.248Z,9.40
2023-04-23T10:18:46.937Z,9.27
2023-04-23T10:21:16.737Z,7.30
2023-04-23T10:23:48.623Z,6.47
2023-04-23T10:26:17.343Z,6.57
2023-04-23T10:28:49.366Z,12.37
2023-04-23T10:31:20.039Z,13.93
2023-04-23T10:33:59.070Z,7.87
2023-04-23T10:36:28.510Z,13.43
2023-04-23T10:39:00.495Z,7.07
2023-04-23T10:41:36.807Z,6.77
2023-04-23T10:44:06.286Z,7.57
2023-04-23T10:46:37.783Z,7.47
2023-04-23T10:49:17.000Z,11.63
2023-04-23T10:54:20.233Z,7.47
2023-04-23T10:57:02.209Z,7.47
2023-04-23T10:59:31.706Z,9.33
2023-04-23T11:02:07.099Z,5.70
2023-04-23T11:04:37.450Z,10.77
2023-04-23T11:07:10.110Z,9.40
2023-04-23T11:09:48.270Z,9.47
2023-04-23T11:12:25.712Z,7.87
2023-04-23T11:14:55.504Z,10.50
2023-04-23T11:17:29.031Z,10.03
2023-04-23T11:20:10.871Z,11.53
2023-04-23T11:22:44.923Z,11.97
2023-04-23T11:25:14.856Z,8.57
2023-04-23T11:27:44.899Z,10.17
2023-04-23T11:30:18.060Z,12.10
2023-04-23T11:32:50.605Z,12.43
2023-04-23T11:35:24.011Z,13.37
2023-04-23T11:37:52.734Z,12.70
2023-04-23T11:40:22.170Z,9.80
2023-04-23T11:42:55.469Z,9.00
2023-04-23T11:45:25.914Z,8.00
2023-04-23T11:47:59.352Z,9.50
2023-04-23T11:50:30.894Z,7.30
2023-04-23T11:53:04.560Z,14.00
2023-04-23T11:55:32.750Z,10.18
2023-04-23T11:58:00.998Z,8.05
2023-04-23T12:00:29.292Z,10.65
2023-04-23T12:03:10.536Z,9.50
2023-04-23T12:05:45.919Z,10.43
2023-04-23T12:08:17.599Z,9.30
2023-04-23T12:10:53.536Z,9.87
2023-04-23T12:13:31.204Z,6.97
2023-04-23T12:16:01.570Z,8.95
2023-04-23T12:18:41.080Z,10.77
2023-04-23T12:21:14.140Z,9.37
2023-04-23T12:23:45.474Z,37.07
2023-04-23T12:26:17.164Z,47.77
2023-04-23T12:28:59.458Z,16.20
2023-04-23T12:31:30.120Z,7.00
2023-04-23T12:34:09.635Z,6.10
2023-04-23T12:36:40.072Z,5.60
2023-04-23T12:39:32.359Z,5.53
2023-04-23T12:42:10.113Z,5.40
2023-04-23T12:44:39.163Z,7.07
2023-04-23T12:47:09.176Z,9.00
2023-04-23T12:49:38.638Z,7.23
2023-04-23T12:52:07.220Z,11.27
2023-04-23T12:54:37.867Z,5.20
2023-04-23T12:57:08.272Z,8.97
2023-04-23T12:59:36.788Z,5.50
2023-04-23T13:02:07.957Z,2.60
2023-04-23T13:04:37.242Z,5.30
2023-04-23T13:07:06.472Z,4.23
2023-04-23T13:09:36.349Z,5.50
2023-04-23T13:12:04.878Z,3.20
2023-04-23T13:14:33.079Z,5.80
2023-04-23T13:17:01.626Z,3.90
2023-04-23T13:19:30.165Z,5.20
2023-04-23T13:22:01.597Z,4.93
2023-04-23T13:24:29.644Z,3.07
2023-04-23T13:26:57.655Z,2.90
2023-04-23T13:29:29.590Z,5.20
2023-04-23T13:32:00.958Z,6.07
2023-04-23T13:34:29.520Z,3.87
2023-04-23T13:36:58.912Z,8.17
2023-04-23T13:39:27.094Z,5.30
2023-04-23T13:42:08.917Z,10.40
2023-04-23T13:44:39.951Z,6.53
2023-04-23T13:47:09.001Z,4.67
2023-04-23T13:49:39.745Z,5.17
2023-04-23T13:52:09.605Z,6.70
2023-04-23T13:54:38.071Z,6.87
2023-04-23T13:57:07.408Z,4.93
2023-04-23T13:59:36.601Z,6.60
2023-04-23T14:02:04.846Z,9.10
2023-04-23T14:04:32.948Z,13.10
2023-04-23T14:07:01.414Z,9.13
2023-04-23T14:09:30.311Z,15.67
2023-04-23T14:11:59.017Z,17.17
2023-04-23T14:14:27.727Z,8.50
2023-04-23T14:16:56.456Z,19.90
2023-04-23T14:19:27.150Z,7.97
2023-04-23T14:21:56.552Z,7.93
2023-04-23T14:24:30.010Z,10.47
2023-04-23T14:26:58.715Z,17.13
2023-04-23T14:29:47.175Z,11.70
2023-04-23T14:32:15.071Z,9.20
2023-04-23T14:34:51.885Z,10.97
2023-04-23T14:37:21.705Z,10.00
2023-04-23T14:39:52.398Z,13.93
2023-04-23T14:42:20.421Z,13.47
2023-04-23T14:44:57.143Z,13.43
2023-04-23T14:47:26.765Z,12.40
2023-04-23T14:49:57.926Z,8.37
2023-04-23T14:52:26.490Z,11.43
2023-04-23T14:54:57.834Z,9.90
2023-04-23T14:57:26.203Z,34.47
2023-04-23T14:59:56.956Z,16.27
2023-04-23T15:02:25.954Z,13.47
2023-04-23T15:04:54.328Z,14.63
2023-04-23T15:07:22.779Z,13.17
2023-04-23T15:09:51.103Z,11.97
2023-04-23T15:12:41.599Z,14.37
2023-04-23T15:15:30.567Z,13.50
2023-04-23T15:18:06.297Z,16.50
2023-04-23T15:20:34.874Z,17.90
2023-04-23T15:23:03.100Z,11.00
2023-04-23T15:25:33.713Z,11.90
2023-04-23T15:28:02.350Z,15.93
2023-04-23T15:30:30.634Z,11.43
2023-04-23T15:32:59.159Z,12.40
2023-04-23T15:35:28.069Z,16.37
2023-04-23T15:37:56.178Z,37.93
2023-04-23T15:40:24.487Z,23.57
2023-04-23T15:42:55.098Z,18.00
2023-04-23T15:45:23.153Z,37.57
2023-04-23T15:47:57.311Z,38.23
2023-04-23T15:50:27.501Z,17.13
2023-04-23T15:52:59.691Z,12.50
2023-04-23T15:55:34.393Z,13.27
2023-04-23T15:58:05.186Z,31.93
2023-04-23T16:00:36.952Z,47.37
2023-04-23T16:03:07.167Z,25.63
2023-04-23T16:05:36.869Z,21.63
2023-04-23T16:08:05.321Z,16.07
2023-04-23T16:10:34.872Z,34.77
2023-04-23T16:13:03.275Z,17.17
2023-04-23T16:15:31.556Z,18.63
2023-04-23T16:18:00.512Z,26.00
2023-04-23T16:20:29.143Z,23.00
2023-04-23T16:22:57.563Z,28.93
2023-04-23T16:25:25.564Z,62.20
2023-04-23T16:27:54.607Z,29.10
2023-04-23T16:30:25.859Z,22.63
2023-04-23T16:32:57.262Z,23.73
2023-04-23T16:35:25.628Z,27.60
2023-04-23T16:37:53.956Z,26.07
2023-04-23T16:40:24.956Z,21.30
2023-04-23T16:42:53.361Z,21.90
2023-04-23T16:45:23.493Z,17.57
2023-04-23T16:47:51.983Z,14.67
2023-04-23T16:50:22.207Z,17.63
2023-04-23T16:52:50.438Z,18.37
2023-04-23T16:55:18.329Z,29.50
2023-04-23T16:57:46.658Z,36.50
2023-04-23T17:00:16.996Z,28.20
2023-04-23T17:02:45.282Z,35.30
2023-04-23T17:05:17.655Z,34.50
2023-04-23T17:07:46.442Z,36.97
2023-04-23T17:10:21.323Z,27.87
2023-04-23T17:12:54.190Z,27.53
2023-04-23T17:15:26.946Z,31.20
2023-04-23T17:17:54.906Z,18.63
2023-04-23T17:20:26.499Z,35.67
2023-04-23T17:22:54.846Z,21.87
2023-04-23T17:25:23.199Z,23.80
2023-04-23T17:27:51.472Z,26.57
2023-04-23T17:30:20.054Z,22.50
2023-04-23T17:32:48.840Z,29.57
2023-04-23T17:35:17.623Z,24.47
2023-04-23T17:37:46.224Z,21.70
2023-04-23T17:40:14.353Z,24.83
2023-04-23T17:42:43.233Z,22.97
2023-04-23T17:45:12.143Z,23.03
2023-04-23T17:47:49.361Z,39.07
2023-04-23T17:50:17.558Z,27.10
2023-04-23T17:52:46.178Z,22.13
2023-04-23T17:55:17.513Z,32.07
2023-04-23T17:57:48.296Z,29.63
2023-04-23T18:00:25.317Z,28.03
2023-04-23T18:02:54.409Z,33.83
2023-04-23T18:05:25.859Z,40.67
2023-04-23T18:07:56.769Z,43.27
2023-04-23T18:10:25.343Z,25.97
2023-04-23T18:12:54.069Z,21.47
2023-04-23T18:15:22.658Z,27.47
2023-04-23T18:17:58.053Z,25.23
2023-04-23T18:20:27.110Z,31.10
2023-04-23T18:23:15.940Z,43.10
2023-04-23T18:25:46.312Z,27.53
2023-04-23T18:28:14.861Z,28.63
2023-04-23T18:30:43.004Z,32.17
2023-04-23T18:33:19.719Z,22.37
2023-04-23T18:35:48.579Z,28.30
2023-04-23T18:38:46.141Z,29.13
2023-04-23T18:41:14.332Z,24.33
2023-04-23T18:43:42.572Z,28.57
2023-04-23T18:46:10.800Z,32.60
2023-04-23T18:48:41.908Z,31.73
2023-04-23T18:51:19.133Z,32.00
2023-04-23T18:53:48.673Z,39.40
2023-04-23T18:56:16.940Z,34.93
2023-04-23T18:58:45.075Z,38.20
2023-04-23T19:01:14.447Z,45.27
2023-04-23T19:03:46.057Z,45.17
2023-04-23T19:06:19.369Z,38.77
2023-04-23T19:08:47.848Z,36.93
2023-04-23T19:11:16.119Z,43.20
2023-04-23T19:13:46.109Z,39.57
2023-04-23T19:16:17.135Z,35.17
2023-04-23T19:18:45.635Z,35.13
2023-04-23T19:21:14.016Z,32.27
2023-04-23T19:23:42.463Z,41.03
2023-04-23T19:26:10.687Z,45.37
2023-04-23T19:28:39.433Z,48.53
2023-04-23T19:31:08.012Z,39.83
2023-04-23T19:33:36.507Z,41.83
2023-04-23T19:36:05.112Z,42.53
2023-04-23T19:38:33.496Z,39.20
2023-04-23T19:41:01.833Z,42.57
2023-04-23T19:43:30.651Z,52.33
2023-04-23T19:45:59.485Z,32.70
2023-04-23T19:48:28.040Z,44.70
2023-04-23T19:50:56.346Z,44.07
2023-04-23T19:53:25.100Z,34.70
2023-04-23T19:55:53.688Z,52.57
2023-04-23T19:58:22.465Z,38.70
2023-04-23T20:00:50.839Z,39.37
2023-04-23T20:03:19.428Z,35.87
2023-04-23T20:05:48.698Z,32.33
2023-04-23T20:08:26.324Z,39.40
2023-04-23T20:10:54.726Z,47.17
2023-04-23T20:13:24.235Z,47.03
2023-04-23T20:16:00.677Z,40.60
2023-04-23T20:18:35.818Z,52.30
2023-04-23T20:21:05.322Z,31.37
2023-04-23T20:23:33.487Z,40.83
2023-04-23T20:26:01.602Z,37.83
2023-04-23T20:28:32.820Z,45.07
2023-04-23T20:31:01.356Z,46.37
2023-04-23T20:33:29.848Z,51.17
2023-04-23T20:35:59.109Z,56.27
2023-04-23T20:38:30.936Z,65.30
2023-04-23T20:41:03.119Z,43.00
2023-04-23T20:43:33.609Z,54.27
2023-04-23T20:46:05.111Z,58.27
2023-04-23T20:48:34.260Z,55.57
2023-04-23T20:51:07.764Z,49.57
2023-04-23T20:53:36.611Z,61.23
2023-04-23T20:56:04.771Z,156.90
2023-04-23T20:58:36.735Z,144.97
2023-04-23T21:01:07.514Z,118.93
2023-04-23T21:04:01.775Z,123.10
2023-04-23T21:06:31.631Z,120.30
2023-04-23T21:09:00.007Z,122.23
2023-04-23T21:11:28.499Z,94.43
2023-04-23T21:13:57.644Z,98.87
2023-04-23T21:16:27.201Z,105.60
2023-04-23T21:18:57.109Z,101.23
2023-04-23T21:21:30.082Z,64.63
2023-04-23T21:24:02.867Z,80.23
2023-04-23T21:26:32.008Z,88.00
2023-04-23T21:29:01.322Z,89.67
2023-04-23T21:31:48.419Z,100.80
2023-04-23T21:34:17.076Z,102.43
2023-04-23T21:36:45.521Z,99.83
2023-04-23T21:39:14.106Z,78.03
2023-04-23T21:41:42.339Z,63.73
2023-04-23T21:44:10.249Z,70.67
2023-04-23T21:46:38.846Z,61.00
2023-04-23T21:49:07.154Z,56.77
2023-04-23T21:51:37.338Z,66.00
2023-04-23T21:54:08.835Z,42.67
2023-04-23T21:56:39.140Z,54.00
2023-04-23T21:59:07.721Z,43.13
2023-04-23T22:01:36.945Z,51.60
2023-04-23T22:04:07.042Z,51.20
2023-04-23T22:06:35.701Z,49.90
2023-04-23T22:09:06.318Z,57.03
2023-04-23T22:11:37.447Z,69.63
2023-04-23T22:14:06.696Z,54.73
2023-04-23T22:16:36.209Z,47.93
2023-04-23T22:19:04.895Z,64.07
2023-04-23T22:21:33.391Z,80.17
2023-04-23T22:24:03.950Z,64.13
2023-04-23T22:26:34.440Z,40.67
2023-04-23T22:29:02.760Z,49.00
2023-04-23T22:31:31.014Z,55.33
2023-04-23T22:33:58.994Z,76.40
2023-04-23T22:36:28.703Z,75.77
2023-04-23T22:38:56.909Z,83.87
2023-04-23T22:41:25.610Z,57.03
2023-04-23T22:43:54.763Z,56.80
2023-04-23T22:46:23.328Z,73.67
2023-04-23T22:48:53.050Z,70.07
2023-04-23T22:51:21.105Z,51.43
2023-04-23T22:53:49.121Z,52.43
2023-04-23T22:56:18.282Z,46.53
2023-04-23T22:58:47.121Z,48.83
2023-04-23T23:01:15.342Z,55.57
2023-04-23T23:03:43.452Z,49.03
2023-04-23T23:06:12.480Z,46.97
2023-04-23T23:08:41.325Z,45.57
2023-04-23T23:11:09.437Z,41.30
2023-04-23T23:13:37.902Z,43.37
2023-04-23T23:16:09.275Z,40.77
2023-04-23T23:18:38.676Z,49.87
2023-04-23T23:21:07.012Z,43.00
2023-04-23T23:23:35.307Z,46.20
2023-04-23T23:26:03.600Z,46.27
2023-04-23T23:28:31.806Z,57.30
2023-04-23T23:31:00.142Z,59.33
2023-04-23T23:33:30.647Z,41.23
2023-04-23T23:35:58.869Z,53.77
2023-04-23T23:38:27.495Z,54.00
2023-04-23T23:40:55.794Z,46.50
2023-04-23T23:43:23.789Z,51.20
2023-04-23T23:45:52.098Z,54.53
2023-04-23T23:48:20.869Z,48.57
2023-04-23T23:50:48.995Z,51.33
2023-04-23T23:53:16.989Z,47.70
2023-04-23T23:55:45.058Z,50.70
2023-04-23T23:58:13.121Z,49.53
